Time;durP1;ratioP1;P1;durP2;ratioP2;P2;SDS_P1;SDS_P2;PMS_P1;PMS_P2;Temp;Humidity;BMP_temperature;BMP_pressure;BME280_temperature;BME280_humidity;BME280_pressure;Samples;Min_cycle;Max_cycle;Signal;HPM_P1;HPM_P2
2021/08/14 00:01:59;;;;;;;11.05;4.40;;;;;;;19.55;53.01;102101.97;4980148;28;110225;-63
2021/08/14 00:04:27;;;;;;;10.60;4.65;;;;;;;19.50;53.39;102104.06;4977317;28;124112;-62
2021/08/14 00:06:54;;;;;;;10.90;5.00;;;;;;;19.47;53.24;102103.41;4979901;28;123995;-63
2021/08/14 00:09:21;;;;;;;10.20;4.38;;;;;;;19.43;53.30;102108.09;4980354;28;110174;-63
2021/08/14 00:11:48;;;;;;;11.38;4.50;;;;;;;19.42;53.36;102106.34;4975138;28;108882;-62
2021/08/14 00:14:15;;;;;;;9.73;4.03;;;;;;;19.39;53.60;102111.94;4980428;28;124736;-63
2021/08/14 00:16:43;;;;;;;10.82;4.50;;;;;;;19.36;53.66;102112.13;4975037;28;123722;-63
2021/08/14 00:19:10;;;;;;;10.63;4.55;;;;;;;19.33;53.56;102112.34;4985346;28;109240;-63
2021/08/14 00:21:37;;;;;;;10.48;4.22;;;;;;;19.31;53.44;102108.84;4972474;28;109315;-63
2021/08/14 00:24:05;;;;;;;10.00;4.38;;;;;;;19.29;53.27;102110.78;4968041;28;123909;-63
2021/08/14 00:26:32;;;;;;;10.82;4.53;;;;;;;19.23;53.48;102096.78;4962092;28;122661;-62
2021/08/14 00:28:59;;;;;;;11.80;4.70;;;;;;;19.20;53.53;102107.69;4983966;28;111288;-61
2021/08/14 00:31:26;;;;;;;12.15;4.35;;;;;;;19.16;53.47;102111.53;4981835;28;109081;-62
2021/08/14 00:33:54;;;;;;;8.48;3.70;;;;;;;19.13;53.40;102106.34;4982107;28;124809;-62
2021/08/14 00:36:21;;;;;;;10.25;4.50;;;;;;;19.10;53.49;102102.97;4980449;28;123922;-62
2021/08/14 00:38:48;;;;;;;11.88;4.07;;;;;;;19.06;53.58;102104.97;4977318;28;109610;-62
2021/08/14 00:41:16;;;;;;;7.20;3.70;;;;;;;19.03;53.68;102110.56;4981637;28;109881;-62
2021/08/14 00:43:44;;;;;;;7.45;4.07;;;;;;;19.00;53.70;102089.25;4973786;28;124507;-62
2021/08/14 00:46:13;;;;;;;9.13;4.40;;;;;;;18.96;53.89;102093.09;4976203;28;124017;-62
2021/08/14 00:48:40;;;;;;;13.80;4.50;;;;;;;18.92;53.96;102094.25;4960401;28;109102;-62
2021/08/14 00:51:08;;;;;;;14.23;4.53;;;;;;;18.89;53.98;102097.09;4962800;28;110277;-62
2021/08/14 00:53:36;;;;;;;9.95;4.63;;;;;;;18.86;54.05;102093.63;4974402;28;124083;-62
2021/08/14 00:56:05;;;;;;;10.73;4.28;;;;;;;18.86;54.20;102098.16;4975797;28;125442;-62
2021/08/14 00:58:33;;;;;;;7.25;3.88;;;;;;;18.83;54.09;102099.19;4978595;28;109197;-62
2021/08/14 01:01:00;;;;;;;9.57;4.70;;;;;;;18.81;54.18;102101.09;4975207;28;108304;-62
2021/08/14 01:03:28;;;;;;;12.25;4.50;;;;;;;18.79;54.14;102097.59;4978923;28;123876;-62
2021/08/14 01:05:56;;;;;;;12.20;4.28;;;;;;;18.78;54.15;102101.28;4980214;28;124288;-62
2021/08/14 01:08:23;;;;;;;8.43;4.20;;;;;;;18.76;54.29;102104.97;4972146;28;109283;-62
2021/08/14 01:10:50;;;;;;;8.90;4.20;;;;;;;18.74;54.07;102110.47;4971836;28;109095;-62
2021/08/14 01:13:17;;;;;;;8.68;4.30;;;;;;;18.74;54.28;102105.09;4978584;28;124132;-62
2021/08/14 01:15:48;;;;;;;9.15;4.15;;;;;;;18.69;54.51;102099.13;4968876;28;123745;-62
2021/08/14 01:18:16;;;;;;;9.93;4.80;;;;;;;18.68;54.51;102100.06;4975564;28;109301;-62
2021/08/14 01:20:45;;;;;;;9.85;4.78;;;;;;;18.66;54.57;102101.97;4986877;28;109179;-62
2021/08/14 01:23:12;;;;;;;12.75;4.85;;;;;;;18.64;54.41;102098.53;4978579;28;124782;-62
2021/08/14 01:25:41;;;;;;;10.35;4.43;;;;;;;18.62;54.66;102097.75;4958199;28;123461;-62
2021/08/14 01:28:09;;;;;;;8.30;4.53;;;;;;;18.61;54.46;102098.69;4982399;28;109843;-62
2021/08/14 01:30:38;;;;;;;8.85;4.25;;;;;;;18.58;54.76;102098.91;4980018;28;109242;-62
2021/08/14 01:33:06;;;;;;;7.43;4.22;;;;;;;18.57;54.61;102086.41;4977730;28;123935;-62
2021/08/14 01:35:33;;;;;;;12.40;4.78;;;;;;;18.54;54.72;102087.47;4976818;28;123923;-62
2021/08/14 01:38:00;;;;;;;12.27;4.68;;;;;;;18.54;54.75;102083.94;4976188;28;109931;-63
2021/08/14 01:40:27;;;;;;;12.85;5.30;;;;;;;18.52;54.79;102088.53;4967511;28;110251;-62
2021/08/14 01:42:55;;;;;;;11.38;4.93;;;;;;;18.48;54.87;102080.66;4958446;28;123910;-63
2021/08/14 01:45:22;;;;;;;7.40;4.65;;;;;;;18.46;54.87;102082.56;4967557;28;123820;-63
2021/08/14 01:47:49;;;;;;;8.02;4.10;;;;;;;18.44;54.64;102070.16;4985531;28;109274;-62
2021/08/14 01:50:16;;;;;;;10.00;4.32;;;;;;;18.39;54.86;102073.13;4969967;28;109160;-63
2021/08/14 01:52:43;;;;;;;12.00;4.63;;;;;;;18.36;54.82;102076.00;4977447;28;125204;-62
2021/08/14 01:55:10;;;;;;;9.02;4.60;;;;;;;18.34;55.03;102064.50;4982589;28;124318;-62
2021/08/14 01:57:37;;;;;;;10.32;5.13;;;;;;;18.32;54.90;102065.53;4972667;28;110031;-62
2021/08/14 02:00:05;;;;;;;11.27;5.78;;;;;;;18.30;55.09;102062.94;4981509;28;109505;-62
2021/08/14 02:02:38;;;;;;;12.35;5.75;;;;;;;18.28;55.16;102065.72;4980359;28;125140;-63
2021/08/14 02:05:07;;;;;;;13.00;5.93;;;;;;;18.28;55.44;102064.84;4972140;28;124235;-62
2021/08/14 02:07:34;;;;;;;10.90;6.35;;;;;;;18.26;55.22;102072.13;4977907;28;109226;-62
2021/08/14 02:10:01;;;;;;;9.70;6.03;;;;;;;18.26;55.33;102077.50;4974597;28;108871;-62
2021/08/14 02:12:29;;;;;;;12.13;5.53;;;;;;;18.23;55.50;102061.56;4982829;28;123937;-62
2021/08/14 02:14:56;;;;;;;12.65;5.75;;;;;;;18.21;55.43;102058.09;4985167;28;124208;-62
2021/08/14 02:17:23;;;;;;;14.88;6.22;;;;;;;18.20;55.48;102056.41;4987967;28;109316;-62
2021/08/14 02:19:51;;;;;;;12.02;6.65;;;;;;;18.18;55.48;102050.25;4991568;28;109333;-62
2021/08/14 02:22:18;;;;;;;9.80;4.88;;;;;;;18.18;55.38;102058.31;4978173;28;124880;-62
2021/08/14 02:24:45;;;;;;;9.38;4.90;;;;;;;18.16;55.23;102065.53;4976868;28;123874;-62
2021/08/14 02:27:12;;;;;;;7.03;4.45;;;;;;;18.14;55.07;102056.72;4977430;28;110112;-62
2021/08/14 02:29:39;;;;;;;11.00;4.50;;;;;;;18.09;54.97;102060.53;4973912;28;110035;-62
2021/08/14 02:32:06;;;;;;;10.95;5.45;;;;;;;18.05;54.90;102053.63;4978953;28;124769;-62
2021/08/14 02:34:33;;;;;;;11.75;5.38;;;;;;;18.02;55.27;102047.59;4960280;28;123828;-62
2021/08/14 02:37:26;;;;;;;9.20;4.80;;;;;;;17.96;55.32;102043.44;4989927;28;109043;-62
2021/08/14 02:39:53;;;;;;;10.20;5.20;;;;;;;17.93;55.29;102042.75;4974245;28;108932;-62
2021/08/14 02:42:20;;;;;;;15.32;6.47;;;;;;;17.91;55.50;102037.47;4981366;28;123864;-62
2021/08/14 02:44:47;;;;;;;11.65;6.00;;;;;;;17.88;55.64;102035.84;4977930;28;124251;-62
2021/08/14 02:47:15;;;;;;;11.05;6.47;;;;;;;17.86;55.78;102036.88;4964098;28;107899;-62
2021/08/14 02:49:42;;;;;;;12.63;6.93;;;;;;;17.85;55.82;102036.00;4970474;28;109013;-62
2021/08/14 02:52:09;;;;;;;12.20;7.10;;;;;;;17.85;56.01;102040.50;4972820;28;124093;-62
2021/08/14 02:54:36;;;;;;;10.70;6.80;;;;;;;17.83;55.97;102034.34;4979073;28;123808;-62
2021/08/14 02:57:03;;;;;;;15.00;7.60;;;;;;;17.83;55.97;102031.66;4974477;28;108809;-62
2021/08/14 02:59:30;;;;;;;17.52;7.70;;;;;;;17.81;56.06;102039.78;4982238;28;108772;-62
2021/08/14 03:01:58;;;;;;;13.73;7.75;;;;;;;17.82;55.88;102035.28;4980219;28;123864;-62
2021/08/14 03:04:25;;;;;;;18.63;8.60;;;;;;;17.81;56.01;102038.91;4961256;28;122678;-62
2021/08/14 03:06:56;;;;;;;12.82;7.70;;;;;;;17.80;56.40;102037.19;4981398;28;109260;-62
2021/08/14 03:09:23;;;;;;;15.52;8.05;;;;;;;17.79;56.24;102041.69;4973435;28;108514;-62
2021/08/14 03:11:50;;;;;;;15.07;7.95;;;;;;;17.80;56.17;102043.44;4982768;28;124236;-62
2021/08/14 03:14:17;;;;;;;14.18;7.78;;;;;;;17.78;56.23;102034.59;4969613;28;124819;-63
2021/08/14 03:16:44;;;;;;;13.80;7.68;;;;;;;17.78;56.07;102033.72;4971975;28;110169;-63
2021/08/14 03:19:12;;;;;;;14.25;7.82;;;;;;;17.77;56.07;102032.00;4976987;28;109869;-63
2021/08/14 03:21:39;;;;;;;13.95;7.15;;;;;;;17.75;56.22;102036.59;4982396;28;124039;-62
2021/08/14 03:24:06;;;;;;;17.13;8.30;;;;;;;17.74;56.35;102022.31;4985354;28;124639;-62
2021/08/14 03:26:33;;;;;;;17.05;8.07;;;;;;;17.73;56.66;102025.09;4964692;28;108062;-62
2021/08/14 03:29:00;;;;;;;15.90;8.73;;;;;;;17.75;56.65;102028.56;4974695;28;108988;-62
2021/08/14 03:31:28;;;;;;;15.35;8.82;;;;;;;17.76;56.82;102030.25;4977824;28;123588;-62
2021/08/14 03:33:55;;;;;;;18.63;8.85;;;;;;;17.75;56.74;102028.56;4986807;28;124766;-62
2021/08/14 03:36:22;;;;;;;14.30;8.25;;;;;;;17.76;56.83;102030.25;4989446;28;109429;-62
2021/08/14 03:38:50;;;;;;;14.43;8.43;;;;;;;17.76;56.87;102032.94;4985539;28;109140;-62
2021/08/14 03:41:17;;;;;;;13.98;8.05;;;;;;;17.77;56.86;102026.66;4973212;28;124337;-62
2021/08/14 03:43:44;;;;;;;14.05;8.43;;;;;;;17.77;56.77;102021.28;4983782;28;124670;-62
2021/08/14 03:46:11;;;;;;;17.67;8.77;;;;;;;17.77;56.82;102026.66;4981300;28;108869;-62
2021/08/14 03:48:38;;;;;;;14.95;8.18;;;;;;;17.77;57.01;102021.28;4976269;28;108945;-62
2021/08/14 03:51:06;;;;;;;15.98;8.43;;;;;;;17.77;57.00;102022.16;4977420;28;124645;-62
2021/08/14 03:53:33;;;;;;;17.58;9.32;;;;;;;17.79;57.00;102024.75;4976516;28;123629;-62
2021/08/14 03:56:00;;;;;;;18.55;8.90;;;;;;;17.79;57.18;102024.75;4990057;28;109219;-62
2021/08/14 03:58:32;;;;;;;14.15;8.05;;;;;;;17.80;57.20;102021.09;4979203;28;109069;-62
2021/08/14 04:01:00;;;;;;;14.35;7.97;;;;;;;17.80;56.97;102018.41;4975331;28;123905;-62
2021/08/14 04:03:27;;;;;;;13.15;8.20;;;;;;;17.82;56.98;102035.28;4977510;28;124001;-62
2021/08/14 04:05:54;;;;;;;17.13;8.50;;;;;;;17.82;57.16;102029.91;4978091;28;110972;-62
2021/08/14 04:08:22;;;;;;;13.02;8.15;;;;;;;17.81;57.08;102030.88;4974098;28;110493;-62
2021/08/14 04:10:49;;;;;;;15.88;8.20;;;;;;;17.82;57.11;102040.63;4985471;28;124296;-62
2021/08/14 04:13:16;;;;;;;16.48;8.18;;;;;;;17.80;57.07;102037.19;5008223;22;123943;-68
2021/08/14 04:15:43;;;;;;;12.02;7.82;;;;;;;17.79;57.25;102030.09;4985647;28;109021;-68
2021/08/14 04:18:10;;;;;;;17.35;8.35;;;;;;;17.77;57.09;102037.38;4984958;28;108783;-69
2021/08/14 04:20:37;;;;;;;13.98;7.63;;;;;;;17.76;57.45;102024.91;4983051;28;124691;-68
2021/08/14 04:23:05;;;;;;;13.70;7.57;;;;;;;17.77;57.35;102034.69;4983707;28;124165;-68
2021/08/14 04:25:32;;;;;;;15.15;7.95;;;;;;;17.76;57.50;102030.25;4967654;28;109106;-68
2021/08/14 04:27:59;;;;;;;15.38;7.90;;;;;;;17.76;57.38;102025.75;4983146;28;108744;-68
2021/08/14 04:30:26;;;;;;;14.02;7.65;;;;;;;17.77;57.61;102032.00;4986032;28;124260;-68
2021/08/14 04:32:53;;;;;;;11.75;7.47;;;;;;;17.77;57.62;102032.00;4983711;28;124254;-68
2021/08/14 04:35:20;;;;;;;14.23;7.70;;;;;;;17.77;57.65;102032.00;4962100;28;108934;-68
2021/08/14 04:37:49;;;;;;;12.95;7.32;;;;;;;17.77;57.64;102032.00;4965234;28;109127;-68
2021/08/14 04:40:16;;;;;;;14.75;7.57;;;;;;;17.77;57.72;102038.22;4969128;28;123094;-68
2021/08/14 04:42:44;;;;;;;14.00;7.03;;;;;;;17.76;57.52;102030.25;4989656;28;123798;-68
2021/08/14 04:45:12;;;;;;;12.43;7.32;;;;;;;17.74;57.67;102032.16;4970484;28;109169;-68
2021/08/14 04:47:39;;;;;;;14.77;7.05;;;;;;;17.75;57.79;102029.41;4962462;28;107932;-68
2021/08/14 04:50:10;;;;;;;14.48;7.35;;;;;;;17.75;57.86;102028.56;4967075;28;124027;-68
2021/08/14 04:52:37;;;;;;;14.70;7.25;;;;;;;17.75;57.93;102028.56;4990015;28;123537;-68
2021/08/14 04:55:04;;;;;;;15.32;7.18;;;;;;;17.76;57.79;102024.91;4980723;28;109835;-68
2021/08/14 04:57:31;;;;;;;11.88;7.13;;;;;;;17.76;57.83;102019.53;4978687;28;109733;-68
2021/08/14 04:59:59;;;;;;;15.25;7.63;;;;;;;17.77;57.89;102021.28;4982539;28;123931;-68
2021/08/14 05:02:26;;;;;;;15.07;6.78;;;;;;;17.79;58.05;102027.44;4987458;28;123680;-68
2021/08/14 05:04:53;;;;;;;16.02;7.75;;;;;;;17.79;57.98;102030.97;4969477;28;108585;-71
2021/08/14 05:07:20;;;;;;;14.15;6.93;;;;;;;17.80;57.96;102027.34;4986461;28;109365;-69
2021/08/14 05:09:48;;;;;;;19.08;7.40;;;;;;;17.81;58.23;102025.53;4986752;28;124736;-68
2021/08/14 05:12:15;;;;;;;16.20;7.28;;;;;;;17.84;58.15;102033.41;4966215;28;123686;-68
2021/08/14 05:14:42;;;;;;;16.10;7.07;;;;;;;17.85;58.25;102024.41;4962910;28;108159;-68
2021/08/14 05:17:09;;;;;;;11.93;6.80;;;;;;;17.87;58.06;102035.91;4985073;28;109646;-68
2021/08/14 05:19:36;;;;;;;10.70;6.97;;;;;;;17.90;58.27;102027.72;4983654;28;124048;-68
2021/08/14 05:22:04;;;;;;;16.48;7.75;;;;;;;17.95;58.04;102035.47;4985919;28;122993;-68
2021/08/14 05:24:31;;;;;;;13.68;7.13;;;;;;;17.98;58.35;102038.84;4966626;28;109410;-68
2021/08/14 05:26:58;;;;;;;12.90;7.70;;;;;;;18.01;58.40;102038.69;4977927;28;108660;-68
2021/08/14 05:29:25;;;;;;;12.27;7.00;;;;;;;18.03;58.31;102039.47;4980164;28;124211;-69
2021/08/14 05:31:52;;;;;;;14.38;7.28;;;;;;;18.07;58.44;102046.38;4988719;28;123921;-68
2021/08/14 05:34:19;;;;;;;13.88;6.90;;;;;;;18.11;58.40;102035.47;4993035;28;109341;-68
2021/08/14 05:36:47;;;;;;;12.73;6.38;;;;;;;18.14;58.10;102035.28;4973912;28;108767;-68
2021/08/14 05:39:14;;;;;;;13.52;6.47;;;;;;;18.16;58.35;102034.25;4990773;28;123850;-67
2021/08/14 05:41:42;;;;;;;17.13;7.30;;;;;;;18.18;58.30;102037.72;4985908;28;124212;-68
2021/08/14 05:44:09;;;;;;;14.82;6.70;;;;;;;18.21;58.26;102036.66;4985622;28;110179;-68
2021/08/14 05:46:36;;;;;;;11.68;6.60;;;;;;;18.24;58.28;102031.97;4985244;28;109597;-69
2021/08/14 05:49:03;;;;;;;13.68;6.93;;;;;;;18.26;58.08;102023.84;4989808;28;124517;-68
2021/08/14 05:51:30;;;;;;;14.55;6.65;;;;;;;18.28;58.36;102027.31;4994521;28;123752;-68
2021/08/14 05:54:14;;;;;;;14.65;6.00;;;;;;;18.32;58.37;102012.75;4964030;28;109180;-68
2021/08/14 05:56:41;;;;;;;11.70;6.30;;;;;;;18.35;58.29;102017.94;4986610;28;108779;-68
2021/08/14 05:59:08;;;;;;;12.48;6.50;;;;;;;18.39;58.45;102024.84;4986746;28;123968;-68
2021/08/14 06:01:35;;;;;;;12.63;6.25;;;;;;;18.42;58.31;102013.97;4986137;28;123913;-69
2021/08/14 06:04:03;;;;;;;15.88;6.70;;;;;;;18.45;58.20;102019.13;4985821;28;108998;-68
2021/08/14 06:06:30;;;;;;;14.27;6.10;;;;;;;18.49;58.37;102026.03;4988337;28;109170;-68
2021/08/14 06:08:57;;;;;;;14.07;5.78;;;;;;;18.53;58.20;102032.06;4969725;28;122928;-68
2021/08/14 06:11:24;;;;;;;9.63;6.00;;;;;;;18.54;58.20;102028.44;4983495;28;124029;-69
2021/08/14 06:13:51;;;;;;;13.27;6.20;;;;;;;18.57;58.20;102022.03;4980500;28;109334;-69
2021/08/14 06:16:18;;;;;;;14.57;5.95;;;;;;;18.61;58.27;102023.56;4984991;28;109210;-69
2021/08/14 06:18:47;;;;;;;9.35;5.68;;;;;;;18.65;58.19;102033.19;4990088;28;124260;-68
2021/08/14 06:21:14;;;;;;;12.93;6.07;;;;;;;18.70;58.36;102028.38;4978035;28;125647;-68
2021/08/14 06:23:41;;;;;;;14.63;6.07;;;;;;;18.75;58.37;102028.97;4957470;28;114055;-69
2021/08/14 06:26:08;;;;;;;12.10;5.60;;;;;;;18.80;58.20;102026.91;4980875;28;113796;-68
2021/08/14 06:28:35;;;;;;;10.73;5.32;;;;;;;18.86;58.29;102026.53;4980785;28;124143;-67
2021/08/14 06:31:02;;;;;;;14.80;5.72;;;;;;;18.92;58.27;102021.75;4983219;28;124727;-70
2021/08/14 06:33:29;;;;;;;11.85;5.63;;;;;;;18.98;58.21;102032.09;4980788;28;115324;-69
2021/08/14 06:36:01;;;;;;;15.10;5.85;;;;;;;19.04;58.22;102026.34;4979638;28;115504;-69
2021/08/14 06:38:28;;;;;;;12.82;5.55;;;;;;;19.11;57.90;102032.22;4980995;28;123877;-69
2021/08/14 06:40:55;;;;;;;12.48;5.20;;;;;;;19.17;58.26;102032.69;4981861;28;124886;-68
2021/08/14 06:43:22;;;;;;;15.18;5.90;;;;;;;19.28;58.44;102028.47;4961594;28;114610;-70
2021/08/14 06:45:49;;;;;;;12.40;5.30;;;;;;;19.38;58.17;102029.59;4982817;28;114240;-69
2021/08/14 06:48:17;;;;;;;13.63;5.15;;;;;;;19.48;58.09;102025.38;4964587;28;122982;-69
2021/08/14 06:50:44;;;;;;;13.88;5.50;;;;;;;19.62;58.26;102028.03;4966182;28;122656;-69
2021/08/14 06:53:15;;;;;;;8.73;5.18;;;;;;;19.78;58.19;102027.09;4985376;28;114970;-70
2021/08/14 06:55:43;;;;;;;11.63;5.15;;;;;;;19.90;57.95;102028.13;4981652;28;114323;-70
2021/08/14 06:58:10;;;;;;;12.20;5.22;;;;;;;20.05;57.91;102034.31;4984711;28;124667;-69
2021/08/14 07:00:37;;;;;;;12.13;5.20;;;;;;;20.19;57.86;102026.16;4981098;28;124035;-69
2021/08/14 07:03:06;;;;;;;13.00;4.88;;;;;;;20.34;57.95;102019.78;4980881;28;116358;-69
2021/08/14 07:05:34;;;;;;;13.07;4.93;;;;;;;20.52;57.75;102022.19;4960262;28;113793;-69
2021/08/14 07:08:01;;;;;;;12.65;4.90;;;;;;;20.69;57.76;102016.53;4965356;28;124305;-69
2021/08/14 07:10:28;;;;;;;12.40;4.80;;;;;;;20.87;57.58;102013.50;4979637;28;124575;-69
2021/08/14 07:12:55;;;;;;;13.05;4.63;;;;;;;21.04;57.22;102013.19;4970288;28;114236;-69
2021/08/14 07:15:23;;;;;;;16.20;5.47;;;;;;;21.20;57.08;102013.81;4968311;28;114540;-69
2021/08/14 07:17:50;;;;;;;12.50;5.78;;;;;;;21.36;56.73;102012.69;4987227;28;123995;-69
2021/08/14 07:20:17;;;;;;;10.85;4.40;;;;;;;21.51;56.72;102010.75;4947382;28;124108;-69
2021/08/14 07:22:44;;;;;;;15.73;5.38;;;;;;;21.65;56.51;102023.25;4962096;28;115650;-70
2021/08/14 07:25:11;;;;;;;13.90;5.10;;;;;;;21.78;56.20;102016.84;4981294;28;115369;-69
2021/08/14 07:27:38;;;;;;;11.32;4.70;;;;;;;21.90;55.95;102023.16;4988245;28;123889;-69
2021/08/14 07:30:06;;;;;;;9.82;4.25;;;;;;;22.03;55.77;102014.16;4968238;28;124001;-70
2021/08/14 07:32:33;;;;;;;12.95;4.88;;;;;;;22.16;55.66;102006.84;4985326;28;114270;-69
2021/08/14 07:35:01;;;;;;;13.48;5.07;;;;;;;22.31;55.52;102013.81;4981265;28;113698;-70
2021/08/14 07:37:28;;;;;;;15.35;5.30;;;;;;;22.44;55.30;102011.03;4979651;28;124747;-69
2021/08/14 07:39:55;;;;;;;12.32;4.72;;;;;;;22.56;55.12;102009.22;4987370;28;123960;-69
2021/08/14 07:42:22;;;;;;;13.25;5.15;;;;;;;22.67;54.96;102001.16;4978248;28;114219;-69
2021/08/14 07:44:50;;;;;;;17.00;5.20;;;;;;;22.80;54.82;102006.47;4984838;28;113183;-69
2021/08/14 07:47:17;;;;;;;14.48;4.97;;;;;;;22.96;54.66;102006.09;4977466;28;123868;-70
2021/08/14 07:49:44;;;;;;;14.02;5.30;;;;;;;23.10;54.55;102011.31;4964662;28;124488;-70
2021/08/14 07:52:11;;;;;;;15.13;4.70;;;;;;;23.25;54.31;102013.78;4960925;28;113160;-70
2021/08/14 07:54:38;;;;;;;14.77;4.95;;;;;;;23.38;54.32;102016.34;4964053;28;114222;-70
2021/08/14 07:57:05;;;;;;;13.02;4.75;;;;;;;23.50;53.83;102016.19;4977424;28;123922;-69
2021/08/14 07:59:32;;;;;;;17.88;4.95;;;;;;;23.60;53.48;102015.44;4962667;28;122034;-70
2021/08/14 08:01:59;;;;;;;15.48;5.00;;;;;;;23.69;53.50;102014.69;4988988;28;115059;-69
2021/08/14 08:04:26;;;;;;;12.05;4.80;;;;;;;23.77;53.24;102006.81;4970893;28;113698;-70
2021/08/14 08:06:53;;;;;;;11.25;4.70;;;;;;;23.88;53.49;102005.94;4990970;28;123754;-69
2021/08/14 08:09:21;;;;;;;15.68;5.55;;;;;;;24.01;53.07;102013.91;4990922;28;123781;-70
2021/08/14 08:11:48;;;;;;;13.73;4.97;;;;;;;24.12;52.90;102011.16;4955615;28;113976;-69
2021/08/14 08:14:15;;;;;;;12.82;4.78;;;;;;;24.27;52.76;102015.25;4989199;28;114812;-69
2021/08/14 08:16:42;;;;;;;16.67;4.85;;;;;;;24.39;52.19;102017.91;4966704;28;123156;-70
2021/08/14 08:19:09;;;;;;;14.35;4.90;;;;;;;24.50;52.03;102015.16;4985314;28;123818;-70
2021/08/14 08:21:36;;;;;;;12.85;4.53;;;;;;;24.60;51.68;102013.41;4962057;28;114628;-70
2021/08/14 08:24:04;;;;;;;11.80;4.88;;;;;;;24.66;51.36;102010.16;4972474;28;113120;-70
2021/08/14 08:26:32;;;;;;;12.48;4.78;;;;;;;24.67;51.23;102000.19;4991436;28;124131;-70
2021/08/14 08:28:59;;;;;;;12.32;4.25;;;;;;;24.73;51.16;102009.63;4973288;28;122715;-70
2021/08/14 08:31:27;;;;;;;12.57;4.35;;;;;;;24.79;51.11;102009.09;4990862;28;114032;-70
2021/08/14 08:33:54;;;;;;;10.15;4.28;;;;;;;24.88;50.85;102000.16;4991051;28;114779;-70
2021/08/14 08:36:21;;;;;;;13.65;5.30;;;;;;;25.01;50.85;102006.22;4955656;28;122746;-69
2021/08/14 08:38:48;;;;;;;11.13;4.95;;;;;;;25.06;50.33;102006.66;4983099;28;122750;-70
2021/08/14 08:41:19;;;;;;;14.02;5.47;;;;;;;25.13;50.24;102006.13;4987004;28;114052;-69
2021/08/14 08:43:47;;;;;;;14.48;4.60;;;;;;;25.17;50.34;102007.59;4972689;28;113236;-69
2021/08/14 08:46:18;;;;;;;9.82;4.72;;;;;;;25.25;49.75;102010.50;4990762;28;123800;-69
2021/08/14 08:48:50;;;;;;;12.95;4.85;;;;;;;25.30;49.59;102008.25;4972891;28;123217;-70
2021/08/14 08:51:23;;;;;;;10.50;5.05;;;;;;;25.35;49.58;102005.94;4988839;28;114457;-70
2021/08/14 08:53:51;;;;;;;14.00;4.88;;;;;;;25.37;49.82;102001.28;4990925;28;113920;-69
2021/08/14 08:56:18;;;;;;;10.60;4.70;;;;;;;25.41;49.30;102005.41;4990716;28;123933;-69
2021/08/14 08:58:46;;;;;;;14.13;5.00;;;;;;;25.45;49.40;102004.16;4989045;28;123063;-69
2021/08/14 09:01:13;;;;;;;9.68;4.20;;;;;;;25.51;49.07;101993.75;4990215;28;114915;-69
2021/08/14 09:03:41;;;;;;;11.65;4.72;;;;;;;25.57;48.65;101998.59;4990076;28;113969;-69
2021/08/14 09:06:08;;;;;;;13.88;4.18;;;;;;;25.61;48.77;102000.88;4972865;28;124188;-70
2021/08/14 09:08:35;;;;;;;10.23;3.60;;;;;;;25.64;48.08;101986.19;4972899;28;123696;-70
2021/08/14 09:11:09;;;;;;;9.25;3.67;;;;;;;25.64;47.75;101983.50;4968872;28;113518;-70
2021/08/14 09:13:39;;;;;;;9.82;3.90;;;;;;;25.65;47.94;101982.47;4986697;28;113960;-69
2021/08/14 09:16:23;;;;;;;11.52;3.72;;;;;;;25.67;47.51;101987.78;4990421;28;124283;-70
2021/08/14 09:18:52;;;;;;;8.02;3.25;;;;;;;25.72;47.59;101997.19;4989645;28;124077;-70
2021/08/14 09:21:38;;;;;;;9.65;3.60;;;;;;;25.74;47.19;101992.50;4972329;28;114311;-70
2021/08/14 09:24:08;;;;;;;10.77;3.50;;;;;;;25.76;47.20;101989.63;4971483;28;113741;-70
2021/08/14 09:26:38;;;;;;;9.90;3.15;;;;;;;25.78;47.02;101991.19;4959714;28;122783;-69
2021/08/14 09:29:06;;;;;;;8.48;4.20;;;;;;;25.82;47.42;101995.38;4943326;28;122665;-70
2021/08/14 09:31:52;;;;;;;12.65;3.97;;;;;;;25.89;47.48;101992.09;4976646;28;114087;-70
2021/08/14 09:34:22;;;;;;;9.23;3.35;;;;;;;25.95;46.99;101988.84;4989781;28;113951;-69
2021/08/14 09:37:10;;;;;;;11.98;3.75;;;;;;;25.99;46.89;101992.97;4989940;28;123802;-70
2021/08/14 09:39:56;;;;;;;7.97;3.58;;;;;;;26.05;46.96;101980.69;4985339;28;123808;-69
2021/08/14 09:42:24;;;;;;;11.15;3.75;;;;;;;26.12;46.33;101976.41;4963696;28;114129;-69
2021/08/14 09:45:12;;;;;;;10.80;4.03;;;;;;;26.18;46.66;101987.56;4972786;28;113347;-69
2021/08/14 09:47:40;;;;;;;10.13;3.42;;;;;;;26.23;46.23;101979.81;4980813;28;124509;-69
2021/08/14 09:50:09;;;;;;;14.52;4.18;;;;;;;26.32;45.84;101982.69;4975861;28;124600;-70
2021/08/14 09:52:36;;;;;;;10.25;4.20;;;;;;;26.39;45.82;101987.41;4972123;28;115665;-70
2021/08/14 09:55:04;;;;;;;11.23;4.40;;;;;;;26.47;45.93;101986.66;4967297;28;114703;-70
2021/08/14 09:57:31;;;;;;;8.25;3.60;;;;;;;26.55;46.01;101994.94;4969862;28;124224;-70
2021/08/14 10:00:01;;;;;;;11.98;3.92;;;;;;;26.63;45.42;101996.09;4950265;28;122625;-69
2021/08/14 10:02:40;;;;;;;11.60;3.88;;;;;;;26.68;45.36;101985.66;4990411;28;114121;-69
2021/08/14 10:05:07;;;;;;;11.77;4.18;;;;;;;26.73;45.18;101980.63;4973545;28;112552;-69
2021/08/14 10:07:35;;;;;;;12.18;4.88;;;;;;;26.78;45.06;101986.47;4972119;28;124003;-71
2021/08/14 10:10:02;;;;;;;12.02;5.00;;;;;;;26.81;44.83;101983.47;4990298;28;123477;-70
2021/08/14 10:12:31;;;;;;;12.15;5.30;;;;;;;26.80;44.51;101979.03;5013840;22;113535;-65
2021/08/14 10:14:59;;;;;;;14.60;6.45;;;;;;;26.81;44.99;101988.91;4980349;28;111794;-65
2021/08/14 10:17:27;;;;;;;16.58;6.45;;;;;;;26.82;44.77;101979.72;4969908;28;123956;-65
2021/08/14 10:19:54;;;;;;;17.35;8.02;;;;;;;26.86;44.77;101986.63;4972426;28;124632;-65
2021/08/14 10:22:25;;;;;;;17.27;7.47;;;;;;;26.91;45.15;101967.97;4972114;28;114389;-65
2021/08/14 10:24:55;;;;;;;19.63;8.98;;;;;;;26.98;45.03;101985.41;4974225;28;113992;-65
2021/08/14 10:27:22;;;;;;;17.90;10.23;;;;;;;27.04;45.10;101977.66;4971005;28;123951;-64
2021/08/14 10:29:54;;;;;;;16.73;9.95;;;;;;;27.00;44.81;101983.38;4971642;28;123926;-64
2021/08/14 10:32:47;;;;;;;21.33;11.70;;;;;;;26.96;45.32;101987.41;4954999;28;114801;-65
2021/08/14 10:35:17;;;;;;;24.60;12.90;;;;;;;26.98;44.96;101982.69;4972320;28;113774;-64
2021/08/14 10:37:46;;;;;;;22.80;12.43;;;;;;;27.04;45.12;101988.53;4956861;28;123610;-65
2021/08/14 10:40:15;;;;;;;25.60;13.02;;;;;;;27.06;45.25;101991.97;4972457;28;124190;-64
2021/08/14 10:42:57;;;;;;;22.83;12.88;;;;;;;27.08;45.24;101989.94;4973178;28;115078;-65
2021/08/14 10:45:35;;;;;;;21.35;12.57;;;;;;;27.11;45.29;101990.50;4960065;28;115309;-65
2021/08/14 10:48:04;;;;;;;24.63;13.85;;;;;;;27.14;45.08;101989.34;4974245;28;125012;-64
2021/08/14 10:50:32;;;;;;;26.33;13.77;;;;;;;27.17;45.05;101983.63;4956566;28;122950;-64
2021/08/14 10:53:11;;;;;;;20.10;12.10;;;;;;;27.18;44.84;101985.31;4972846;28;114164;-64
2021/08/14 10:55:42;;;;;;;24.30;13.05;;;;;;;27.19;44.57;101992.47;4972470;28;114314;-65
2021/08/14 10:58:19;;;;;;;27.13;14.23;;;;;;;27.14;44.47;101978.47;4973797;28;124289;-65
2021/08/14 11:00:46;;;;;;;23.10;12.88;;;;;;;27.10;45.12;101982.50;4968680;28;123988;-65
2021/08/14 11:03:14;;;;;;;23.25;13.30;;;;;;;27.11;45.38;101979.63;4972876;28;114348;-65
2021/08/14 11:05:45;;;;;;;28.63;14.63;;;;;;;27.18;45.07;101983.47;4972258;28;113959;-64
2021/08/14 11:08:23;;;;;;;25.52;14.13;;;;;;;27.24;45.23;101979.28;4971541;28;123970;-64
2021/08/14 11:10:50;;;;;;;30.42;14.65;;;;;;;27.28;44.87;101980.72;4973809;28;124691;-65
2021/08/14 11:13:47;;;;;;;28.67;14.40;;;;;;;27.31;45.40;101980.44;4972492;28;114127;-65
2021/08/14 11:16:54;;;;;;;27.27;14.98;;;;;;;27.40;45.52;101980.53;4965208;28;114178;-65